Time;durP1;ratioP1;P1;durP2;ratioP2;P2;SDS_P1;SDS_P2;PMS_P1;PMS_P2;Temp;Humidity;BMP_temperature;BMP_pressure;BME280_temperature;BME280_humidity;BME280_pressure;Samples;Min_cycle;Max_cycle;Signal;HPM_P1;HPM_P2
2024/02/09 00:01:36;;;;;;;12.45;7.00;;;;;;;10.52;76.62;98788.84;5128205;27;20134;-46
2024/02/09 00:04:07;;;;;;;15.48;7.05;;;;;;;10.43;77.06;98786.94;5128288;27;20048;-46
2024/02/09 00:06:36;;;;;;;15.68;6.80;;;;;;;10.55;76.16;98784.09;5128095;27;20474;-46
2024/02/09 00:09:04;;;;;;;13.02;6.25;;;;;;;10.54;76.54;98785.06;5128337;27;20083;-46
2024/02/09 00:11:33;;;;;;;13.82;6.50;;;;;;;10.49;76.54;98786.41;5128089;27;20126;-46
2024/02/09 00:14:01;;;;;;;14.38;7.30;;;;;;;10.36;77.45;98778.59;5121799;27;20090;-45
2024/02/09 00:16:31;;;;;;;11.68;6.80;;;;;;;10.31;77.59;98776.28;5114148;28;20047;-45
2024/02/09 00:19:00;;;;;;;13.57;6.65;;;;;;;10.40;77.48;98776.50;5113913;28;20130;-47
2024/02/09 00:21:30;;;;;;;15.13;7.03;;;;;;;10.43;77.45;98774.44;5114272;28;20043;-45
2024/02/09 00:23:58;;;;;;;14.55;6.88;;;;;;;10.46;77.13;98776.84;5114176;28;20051;-46
2024/02/09 00:26:27;;;;;;;14.77;7.22;;;;;;;10.42;77.20;98770.09;5114350;28;20058;-46
2024/02/09 00:28:57;;;;;;;13.93;7.07;;;;;;;10.48;76.90;98766.06;5114142;28;20070;-45
2024/02/09 00:31:25;;;;;;;15.25;7.10;;;;;;;10.45;77.04;98766.31;5114248;28;20139;-45
2024/02/09 00:33:54;;;;;;;13.55;6.55;;;;;;;10.41;77.25;98767.53;5113871;28;20050;-47
2024/02/09 00:36:23;;;;;;;11.05;6.65;;;;;;;10.40;77.46;98765.84;5113828;28;20515;-45
2024/02/09 00:38:52;;;;;;;12.80;6.72;;;;;;;10.46;77.34;98776.00;5113888;28;20051;-46
2024/02/09 00:41:21;;;;;;;9.40;6.13;;;;;;;10.52;76.84;98775.50;5113767;28;20135;-47
2024/02/09 00:43:49;;;;;;;13.68;6.47;;;;;;;10.38;77.60;98775.78;5113470;28;20112;-45
2024/02/09 00:46:17;;;;;;;13.38;6.35;;;;;;;10.39;77.56;98773.00;5113567;28;20124;-45
2024/02/09 00:48:46;;;;;;;11.57;5.95;;;;;;;10.49;77.19;98781.06;5114054;28;20070;-46
2024/02/09 00:51:14;;;;;;;14.13;6.70;;;;;;;10.49;77.33;98778.41;5113821;28;20436;-45
2024/02/09 00:53:42;;;;;;;12.85;6.30;;;;;;;10.31;78.24;98781.59;5114329;28;20474;-44
2024/02/09 00:56:12;;;;;;;12.82;6.32;;;;;;;10.34;77.95;98782.34;5115633;28;20079;-46
2024/02/09 00:58:40;;;;;;;11.93;6.90;;;;;;;10.35;77.93;98778.72;5113674;28;20087;-44
2024/02/09 01:01:09;;;;;;;13.23;6.30;;;;;;;10.47;77.56;98783.03;5113503;28;20116;-45
2024/02/09 01:03:37;;;;;;;11.60;6.28;;;;;;;10.51;77.14;98795.13;5113003;28;20108;-46
2024/02/09 01:06:06;;;;;;;13.15;6.70;;;;;;;10.42;77.53;98806.53;5113275;28;20122;-45
2024/02/09 01:08:35;;;;;;;11.38;6.57;;;;;;;10.51;77.53;98811.09;5113191;28;20055;-45
2024/02/09 01:11:05;;;;;;;11.07;5.90;;;;;;;10.54;76.94;98811.72;5111741;28;20101;-44
2024/02/09 02:44:49;;;;;;;11.32;4.95;;;;;;;10.13;84.03;98728.94;5111152;28;20061;-45
2024/02/09 02:47:17;;;;;;;11.48;5.53;;;;;;;10.17;84.30;98733.06;5111483;28;20051;-44
2024/02/09 03:06:23;;;;;;;10.73;5.60;;;;;;;9.99;85.27;98732.75;5111316;28;20051;-44
2024/02/09 03:08:54;;;;;;;10.98;4.90;;;;;;;10.00;85.75;98737.13;5111296;28;20039;-44
2024/02/09 03:11:23;;;;;;;10.60;5.05;;;;;;;9.95;85.94;98734.00;5111403;28;20074;-45
2024/02/09 03:13:52;;;;;;;8.93;4.68;;;;;;;9.97;86.07;98737.38;5109685;28;20461;-45
2024/02/09 03:16:20;;;;;;;9.95;4.43;;;;;;;10.00;85.69;98734.44;5111002;28;20111;-44
2024/02/09 03:18:49;;;;;;;8.95;4.97;;;;;;;9.89;87.00;98723.81;5110920;28;20047;-46
2024/02/09 03:21:25;;;;;;;9.40;4.95;;;;;;;9.90;86.99;98741.50;5111110;28;20491;-47
2024/02/09 03:23:56;;;;;;;12.43;5.55;;;;;;;9.92;86.83;98734.22;5110792;28;20118;-46
2024/02/09 03:26:24;;;;;;;13.90;5.13;;;;;;;9.99;86.63;98746.06;5110939;28;20412;-45
2024/02/09 03:28:53;;;;;;;11.32;4.63;;;;;;;10.03;86.27;98743.03;5110814;28;20066;-45
2024/02/09 03:31:21;;;;;;;9.90;4.88;;;;;;;10.09;86.00;98746.16;5110724;28;20052;-45
2024/02/09 03:33:52;;;;;;;13.20;4.80;;;;;;;10.10;85.76;98743.38;5110842;28;20040;-52
2024/02/09 03:36:22;;;;;;;10.05;5.00;;;;;;;10.12;85.69;98745.91;5110821;28;20043;-45
2024/02/09 03:38:50;;;;;;;11.45;4.60;;;;;;;10.08;85.88;98745.31;5110836;28;20044;-46
2024/02/09 03:41:20;;;;;;;11.07;4.75;;;;;;;10.10;86.15;98742.53;5110787;28;20124;-45
2024/02/09 03:43:48;;;;;;;9.82;4.65;;;;;;;10.06;86.30;98741.94;5110455;28;20062;-44
2024/02/09 03:46:17;;;;;;;10.20;5.00;;;;;;;10.04;86.70;98744.75;5110975;28;20386;-45
2024/02/09 03:48:45;;;;;;;11.35;5.07;;;;;;;10.09;86.03;98744.34;5111252;28;20043;-45
2024/02/09 03:51:13;;;;;;;11.75;4.65;;;;;;;10.06;86.33;98741.94;5114804;28;20458;-45
2024/02/09 03:53:43;;;;;;;12.88;5.15;;;;;;;10.08;86.05;98749.81;5114556;28;20183;-44
2024/02/09 03:56:11;;;;;;;9.73;4.50;;;;;;;10.15;85.48;98745.69;5114437;28;20052;-45
2024/02/09 03:58:45;;;;;;;9.65;5.22;;;;;;;10.15;85.48;98749.19;5114946;28;20047;-47
2024/02/09 04:01:14;;;;;;;8.38;4.60;;;;;;;10.08;86.10;98758.66;5114532;28;20408;-45
2024/02/09 04:03:43;;;;;;;11.82;5.00;;;;;;;10.04;86.29;98750.06;5114206;28;20051;-45
2024/02/09 04:06:12;;;;;;;11.35;5.03;;;;;;;9.96;87.07;98747.19;5114435;28;20564;-45
2024/02/09 04:08:40;;;;;;;15.23;5.63;;;;;;;9.85;88.00;98746.38;5114386;28;20120;-46
2024/02/09 04:11:09;;;;;;;11.85;5.57;;;;;;;9.87;88.31;98733.75;5114383;28;20169;-44
2024/02/09 04:13:37;;;;;;;12.40;5.22;;;;;;;9.83;88.77;98735.81;5114542;28;20120;-45
2024/02/09 04:16:08;;;;;;;13.05;5.65;;;;;;;9.73;89.60;98735.72;5114096;28;20143;-43
2024/02/09 04:18:37;;;;;;;13.00;5.97;;;;;;;9.75;89.67;98728.47;5114362;28;20047;-45
2024/02/09 04:21:05;;;;;;;12.40;5.35;;;;;;;9.63;91.02;98729.44;5114286;28;20050;-45
2024/02/09 04:23:33;;;;;;;12.65;5.50;;;;;;;9.66;91.03;98736.34;5115170;28;20039;-47
2024/02/09 04:26:02;;;;;;;13.75;5.40;;;;;;;9.64;91.72;98733.78;5114917;28;20055;-44
2024/02/09 04:28:30;;;;;;;11.40;5.50;;;;;;;9.64;91.55;98736.44;5113942;28;20047;-45
2024/02/09 04:30:58;;;;;;;9.30;5.22;;;;;;;9.52;93.00;98742.75;5114046;28;20082;-45
2024/02/09 04:33:28;;;;;;;11.48;5.63;;;;;;;9.52;93.24;98742.75;5114039;28;20049;-46
2024/02/09 04:35:58;;;;;;;13.95;5.88;;;;;;;9.52;93.53;98721.47;5113928;28;20120;-44
2024/02/09 04:38:27;;;;;;;9.00;5.03;;;;;;;9.54;93.32;98730.16;5113948;28;20044;-44
2024/02/09 04:40:55;;;;;;;12.20;5.70;;;;;;;9.27;96.84;98719.09;5113775;28;20062;-45
2024/02/09 04:43:24;;;;;;;10.95;5.50;;;;;;;9.28;98.64;98728.75;5113789;28;20075;-46
2024/02/09 04:45:55;;;;;;;12.23;5.63;;;;;;;9.37;97.91;98722.72;5113513;28;20086;-44
2024/02/09 04:48:23;;;;;;;12.20;5.88;;;;;;;9.38;97.67;98719.91;5113735;28;20039;-45
2024/02/09 04:50:55;;;;;;;13.55;6.25;;;;;;;9.15;99.95;98716.41;5113597;28;20480;-45
2024/02/09 04:53:23;;;;;;;11.63;5.88;;;;;;;9.22;100.00;98715.94;5113650;28;20121;-47
2024/02/09 04:55:52;;;;;;;15.05;5.97;;;;;;;9.30;100.00;98716.16;5113501;28;20067;-45
2024/02/09 04:58:20;;;;;;;11.20;6.25;;;;;;;9.36;99.35;98710.34;5113380;28;20059;-46
2024/02/09 05:00:49;;;;;;;13.13;6.00;;;;;;;9.17;100.00;98705.66;5113393;28;20090;-45
2024/02/09 05:03:18;;;;;;;13.23;5.82;;;;;;;9.23;100.00;98701.66;5113213;28;20134;-45
2024/02/09 05:05:47;;;;;;;14.85;5.90;;;;;;;9.31;100.00;98708.06;5113259;28;20130;-45
2024/02/09 05:08:17;;;;;;;14.63;5.68;;;;;;;9.32;99.69;98709.75;5113351;28;20241;-43
2024/02/09 05:10:46;;;;;;;13.25;6.25;;;;;;;9.34;99.26;98712.28;5113484;28;20104;-44
2024/02/09 05:13:15;;;;;;;13.45;6.25;;;;;;;9.37;98.77;98712.06;5113557;28;20085;-45
2024/02/09 05:15:43;;;;;;;12.80;5.82;;;;;;;9.37;99.02;98704.94;5113310;28;20048;-45
2024/02/09 05:18:14;;;;;;;14.15;5.47;;;;;;;9.34;98.91;98709.63;5113460;28;20046;-45
2024/02/09 05:20:48;;;;;;;11.35;5.97;;;;;;;9.37;98.84;98706.75;5113042;28;20461;-45
2024/02/09 05:23:18;;;;;;;12.88;6.30;;;;;;;9.33;99.37;98702.63;5112971;28;20495;-46
2024/02/09 05:25:46;;;;;;;14.75;6.25;;;;;;;9.32;99.66;98708.91;5113094;28;20124;-46
2024/02/09 05:28:14;;;;;;;14.68;6.07;;;;;;;9.28;100.00;98699.50;5112906;28;20547;-46
2024/02/09 05:30:44;;;;;;;11.32;5.85;;;;;;;9.21;100.00;98700.94;5113021;28;20044;-47
2024/02/09 05:33:12;;;;;;;13.30;6.32;;;;;;;9.19;100.00;98698.41;5113217;28;20052;-46
2024/02/09 05:35:42;;;;;;;14.48;6.25;;;;;;;9.25;100.00;98691.72;5113071;28;20043;-44
2024/02/09 05:38:11;;;;;;;13.13;6.45;;;;;;;9.26;100.00;98693.41;5112944;28;20082;-45
2024/02/09 05:40:41;;;;;;;15.70;6.13;;;;;;;9.28;100.00;98696.81;5112921;27;20075;-45
2024/02/09 05:43:11;;;;;;;11.43;6.28;;;;;;;9.37;100.00;98691.63;5112766;28;20047;-46
2024/02/09 05:45:40;;;;;;;12.13;5.60;;;;;;;9.44;100.00;98691.97;5112983;28;20051;-45
2024/02/09 05:48:09;;;;;;;11.80;6.32;;;;;;;9.34;100.00;98691.84;5113105;27;20048;-46
2024/02/09 05:50:37;;;;;;;16.38;5.85;;;;;;;9.35;100.00;98687.38;5113014;28;20044;-44
2024/02/09 05:53:08;;;;;;;11.00;5.80;;;;;;;9.25;100.00;98692.56;5113195;28;20043;-48
2024/02/09 05:55:38;;;;;;;8.95;5.25;;;;;;;9.28;100.00;98692.34;5115605;28;20181;-46
2024/02/09 05:58:08;;;;;;;13.23;5.57;;;;;;;9.28;100.00;98689.69;5112784;28;20121;-46
2024/02/09 06:00:36;;;;;;;16.52;6.25;;;;;;;9.33;100.00;98697.28;5112623;28;20044;-46
2024/02/09 06:03:07;;;;;;;10.32;5.90;;;;;;;9.36;100.00;98705.03;5112407;28;20052;-45
2024/02/09 06:05:40;;;;;;;14.95;6.05;;;;;;;9.32;100.00;98703.59;5112406;28;20055;-48
2024/02/09 06:08:09;;;;;;;14.77;5.85;;;;;;;9.29;100.00;98702.03;5113720;28;20397;-47
2024/02/09 06:10:38;;;;;;;10.38;5.80;;;;;;;9.28;100.00;98710.13;5113662;27;20486;-46
2024/02/09 06:13:08;;;;;;;13.75;5.97;;;;;;;9.21;100.00;98715.09;5112575;28;20048;-46
2024/02/09 06:15:37;;;;;;;14.65;6.85;;;;;;;9.28;100.00;98723.44;5112533;28;20048;-46
2024/02/09 06:18:06;;;;;;;13.40;6.28;;;;;;;9.29;100.00;98717.16;5112529;28;20427;-47
2024/02/09 06:20:34;;;;;;;12.10;5.97;;;;;;;9.18;100.00;98713.50;5112254;27;20047;-47
2024/02/09 06:23:04;;;;;;;12.88;5.85;;;;;;;9.22;100.00;98715.94;5112389;28;20054;-44
2024/02/09 06:25:32;;;;;;;10.38;6.10;;;;;;;9.29;100.00;98719.81;5112063;28;20043;-45
2024/02/09 06:28:02;;;;;;;11.88;6.00;;;;;;;9.38;100.00;98724.41;5112613;28;20135;-45
2024/02/09 06:30:35;;;;;;;12.95;5.97;;;;;;;9.46;100.00;98727.31;5112276;28;20458;-47
2024/02/09 06:33:03;;;;;;;12.57;6.18;;;;;;;9.48;100.00;98737.81;5111843;28;20123;-46
2024/02/09 06:35:33;;;;;;;15.13;6.88;;;;;;;9.52;100.00;98736.59;5112193;28;20051;-49
2024/02/09 06:38:01;;;;;;;12.98;6.18;;;;;;;9.51;100.00;98743.72;5112098;28;20040;-48
2024/02/09 06:40:30;;;;;;;15.98;7.18;;;;;;;9.46;100.00;98749.44;5111930;28;20087;-44
2024/02/09 06:42:59;;;;;;;15.20;6.60;;;;;;;9.50;100.00;98744.72;5111969;28;20040;-48
2024/02/09 06:45:27;;;;;;;14.38;6.50;;;;;;;9.43;100.00;98748.81;5111729;28;20468;-45
2024/02/09 06:47:57;;;;;;;16.70;6.82;;;;;;;9.42;100.00;98749.78;5111757;28;20090;-47
2024/02/09 06:50:25;;;;;;;14.18;6.35;;;;;;;9.44;100.00;98751.34;5111887;28;20385;-45
2024/02/09 06:52:55;;;;;;;13.48;7.05;;;;;;;9.32;100.00;98746.16;5111834;28;20044;-45
2024/02/09 06:55:23;;;;;;;14.10;6.57;;;;;;;9.32;100.00;98740.84;5111724;28;20362;-48
2024/02/09 06:57:51;;;;;;;14.57;6.75;;;;;;;9.28;100.00;98744.72;5111673;28;20052;-45
2024/02/09 07:00:20;;;;;;;13.25;6.68;;;;;;;9.38;100.00;98745.69;5111475;28;20119;-47
2024/02/09 07:02:50;;;;;;;15.82;7.22;;;;;;;9.42;100.00;98732.00;5111407;28;20514;-46
2024/02/09 07:05:20;;;;;;;14.02;6.93;;;;;;;9.52;100.00;98737.44;5112398;28;20518;-46
2024/02/09 07:07:52;;;;;;;16.48;8.20;;;;;;;9.68;100.00;98732.59;5111583;28;20100;-46
2024/02/09 07:10:22;;;;;;;13.18;7.50;;;;;;;9.85;100.00;98733.91;5111212;28;20112;-48
2024/02/09 07:12:53;;;;;;;16.30;7.65;;;;;;;9.95;99.21;98728.66;5111071;28;20044;-46
2024/02/09 07:15:22;;;;;;;12.95;6.88;;;;;;;9.89;99.55;98729.16;5111214;28;20048;-47
2024/02/09 07:17:51;;;;;;;17.17;7.43;;;;;;;9.83;100.00;98729.66;5111598;28;20092;-46
2024/02/09 07:20:20;;;;;;;14.23;6.80;;;;;;;9.94;99.25;98722.50;5111362;28;20048;-48
2024/02/09 07:22:49;;;;;;;14.07;7.32;;;;;;;9.97;98.44;98722.25;5111214;28;20127;-45
2024/02/09 07:25:19;;;;;;;15.52;7.55;;;;;;;9.93;98.26;98717.28;5114204;28;20050;-45
2024/02/09 07:27:47;;;;;;;15.18;7.03;;;;;;;10.01;97.55;98722.81;5115224;28;20444;-45
2024/02/09 07:30:17;;;;;;;15.18;6.85;;;;;;;10.12;96.50;98720.13;5115329;28;20100;-45
2024/02/09 07:32:47;;;;;;;14.65;6.95;;;;;;;10.15;94.99;98719.88;5115624;28;20070;-45
2024/02/09 07:35:15;;;;;;;12.68;6.80;;;;;;;10.18;94.85;98718.78;5115400;28;20589;-45
2024/02/09 07:37:45;;;;;;;13.77;6.90;;;;;;;10.19;94.88;98715.97;5115365;28;20097;-46
2024/02/09 07:40:16;;;;;;;14.27;6.75;;;;;;;10.18;94.66;98719.63;5115117;27;20131;-46
2024/02/09 07:42:45;;;;;;;14.73;6.90;;;;;;;10.15;94.45;98719.88;5115405;28;20047;-47
2024/02/09 07:45:15;;;;;;;11.90;7.10;;;;;;;10.15;94.43;98719.03;5115037;28;20192;-46
2024/02/09 07:47:45;;;;;;;13.35;6.65;;;;;;;10.07;94.93;98716.16;5115202;28;20048;-46
2024/02/09 07:50:14;;;;;;;13.98;6.88;;;;;;;10.06;94.71;98715.31;5115170;28;20047;-45
2024/02/09 07:52:43;;;;;;;19.38;9.15;;;;;;;10.24;93.73;98711.16;5114903;28;20097;-46
2024/02/09 07:55:13;;;;;;;15.10;6.97;;;;;;;10.29;92.53;98716.94;5114945;28;20048;-45
2024/02/09 07:57:43;;;;;;;16.70;6.95;;;;;;;10.35;91.80;98712.09;5114899;28;20458;-46
2024/02/09 08:00:17;;;;;;;12.93;6.38;;;;;;;10.56;90.58;98710.28;5114743;28;20058;-45
2024/02/09 08:02:46;;;;;;;11.65;6.63;;;;;;;10.63;89.56;98703.47;5114555;28;20051;-45
2024/02/09 08:05:18;;;;;;;14.88;6.80;;;;;;;10.73;88.25;98701.69;5114587;28;20541;-47
2024/02/09 08:07:47;;;;;;;;;;;;;;;10.67;88.10;98704.03;5115334;28;20051;-44
2024/02/09 08:10:17;;;;;;;14.73;6.25;;;;;;;10.71;87.20;98701.00;5114636;28;19921;-45
2024/02/09 08:12:46;;;;;;;14.93;7.50;;;;;;;10.72;87.42;98700.00;5114366;28;20559;-45
2024/02/09 08:15:14;;;;;;;17.25;7.45;;;;;;;10.65;87.37;98714.84;5114474;28;20052;-45
2024/02/09 08:17:47;;;;;;;14.05;7.10;;;;;;;10.75;87.29;98713.06;5114310;28;20489;-44
2024/02/09 08:20:20;;;;;;;12.27;6.95;;;;;;;10.87;85.67;98714.69;5114330;28;20040;-45
2024/02/09 08:22:49;;;;;;;14.07;6.95;;;;;;;10.87;85.46;98706.69;5114165;27;20484;-44
2024/02/09 08:25:19;;;;;;;12.35;6.85;;;;;;;10.87;85.57;98705.84;5114240;28;20385;-44
2024/02/09 08:27:48;;;;;;;19.00;7.55;;;;;;;11.19;84.50;98695.03;5114013;28;20454;-47
2024/02/09 08:30:17;;;;;;;16.10;7.43;;;;;;;11.38;82.45;98697.78;5114142;28;20051;-46
2024/02/09 08:32:45;;;;;;;11.50;6.65;;;;;;;11.59;81.77;98691.56;5114426;28;20413;-45
2024/02/09 08:35:13;;;;;;;16.00;7.32;;;;;;;11.77;80.91;98684.53;5113680;28;20150;-46
2024/02/09 08:37:42;;;;;;;15.55;7.18;;;;;;;11.63;80.46;98688.47;5114399;28;20127;-47
2024/02/09 08:40:10;;;;;;;12.88;7.25;;;;;;;11.66;80.24;98682.84;5114540;28;20105;-46
2024/02/09 08:42:40;;;;;;;13.48;6.88;;;;;;;11.64;79.87;98683.97;5114282;28;20089;-46
2024/02/09 08:45:10;;;;;;;16.33;6.97;;;;;;;11.61;79.67;98689.59;5115153;28;20039;-46
2024/02/09 08:47:39;;;;;;;14.82;6.90;;;;;;;11.75;79.80;98676.66;5114035;28;20051;-45
2024/02/09 08:50:07;;;;;;;16.75;6.93;;;;;;;11.91;79.37;98670.00;5113884;28;20040;-44
2024/02/09 08:52:36;;;;;;;14.07;6.90;;;;;;;12.02;79.02;98668.03;5113826;28;20039;-46
2024/02/09 08:55:05;;;;;;;13.27;7.28;;;;;;;12.10;78.75;98663.81;5113422;28;20397;-45
2024/02/09 08:57:34;;;;;;;14.45;7.32;;;;;;;12.24;78.06;98663.38;5113482;28;20047;-45
2024/02/09 09:00:05;;;;;;;12.98;6.60;;;;;;;12.41;77.24;98662.66;5113370;28;20048;-48
2024/02/09 09:02:33;;;;;;;17.25;7.13;;;;;;;12.58;75.87;98653.91;5113114;28;20055;-45
2024/02/09 09:05:01;;;;;;;16.10;7.28;;;;;;;12.41;76.15;98657.31;5113226;28;20062;-46
2024/02/09 09:07:31;;;;;;;14.60;7.07;;;;;;;12.43;76.27;98671.38;5111644;28;20161;-46
2024/02/09 09:10:00;;;;;;;14.02;7.22;;;;;;;12.46;76.08;98672.94;5113049;28;20048;-44
2024/02/09 09:12:28;;;;;;;17.02;7.38;;;;;;;12.47;75.78;98672.81;5113375;28;20054;-45
2024/02/09 09:14:57;;;;;;;12.63;7.22;;;;;;;12.38;75.66;98668.31;5113024;28;20071;-45
2024/02/09 09:17:27;;;;;;;17.42;7.93;;;;;;;12.26;76.46;98666.78;5113134;28;20350;-45
2024/02/09 09:19:59;;;;;;;12.18;7.25;;;;;;;12.28;76.76;98667.47;5112739;28;20155;-46
2024/02/09 09:22:28;;;;;;;17.13;7.72;;;;;;;12.28;76.95;98662.13;5112897;28;20048;-45
2024/02/09 09:24:56;;;;;;;14.55;7.50;;;;;;;12.30;77.04;98660.16;5112649;28;20040;-44
2024/02/09 09:27:24;;;;;;;18.02;7.32;;;;;;;12.34;77.47;98661.53;5112685;28;20050;-45
2024/02/09 09:29:53;;;;;;;14.02;7.53;;;;;;;12.42;77.28;98668.84;5112820;28;20050;-46
2024/02/09 09:32:22;;;;;;;13.45;7.60;;;;;;;12.41;77.03;98662.66;5112643;28;20461;-44
2024/02/09 09:34:52;;;;;;;13.73;7.53;;;;;;;12.25;78.17;98659.72;5112692;28;20530;-46
2024/02/09 09:37:20;;;;;;;18.35;7.18;;;;;;;12.26;78.29;98661.44;5112518;28;20093;-49
2024/02/09 09:39:48;;;;;;;17.95;7.05;;;;;;;12.40;77.91;98668.16;5113042;28;20043;-45
2024/02/09 09:42:17;;;;;;;14.02;6.60;;;;;;;12.44;77.64;98662.38;5113099;28;20136;-44
2024/02/09 09:44:49;;;;;;;13.45;7.28;;;;;;;12.39;78.21;98659.28;5113001;28;20051;-45
2024/02/09 09:47:17;;;;;;;14.93;6.88;;;;;;;12.47;77.99;98654.09;5111904;28;20043;-45
2024/02/09 09:49:46;;;;;;;12.27;6.50;;;;;;;12.51;78.25;98657.31;5116138;28;20100;-46
2024/02/09 09:52:28;;;;;;;15.77;6.55;;;;;;;12.49;77.76;98649.44;5100201;28;20097;-45
2024/02/09 09:55:00;;;;;;;18.02;7.25;;;;;;;12.47;78.08;98646.06;5099464;28;20076;-44
2024/02/09 09:57:30;;;;;;;15.85;6.32;;;;;;;12.47;78.37;98643.38;5091913;28;20048;-45
2024/02/09 10:00:00;;;;;;;19.23;6.78;;;;;;;12.47;78.05;98640.72;5100701;28;20123;-47
2024/02/09 10:02:29;;;;;;;14.45;6.80;;;;;;;12.38;78.39;98641.56;5099428;28;20059;-44
2024/02/09 10:04:58;;;;;;;16.30;6.78;;;;;;;12.37;78.29;98639.88;5090853;28;20100;-46
2024/02/09 10:07:30;;;;;;;11.93;6.30;;;;;;;12.32;78.32;98634.09;5106011;28;20069;-45
2024/02/09 10:09:58;;;;;;;14.60;6.60;;;;;;;12.28;78.55;98627.38;5106956;28;20048;-44
2024/02/09 10:12:28;;;;;;;15.50;6.45;;;;;;;12.40;78.13;98628.06;5090810;28;20044;-46
2024/02/09 10:14:57;;;;;;;15.57;6.82;;;;;;;12.33;77.96;98622.41;5099604;28;20500;-45
2024/02/09 10:17:25;;;;;;;15.40;7.13;;;;;;;12.20;78.92;98628.06;5111023;28;20086;-45
2024/02/09 10:19:56;;;;;;;15.30;6.78;;;;;;;12.08;79.63;98612.34;5103878;28;20366;-46
2024/02/09 10:22:24;;;;;;;19.23;7.00;;;;;;;12.03;79.45;98621.59;5109094;28;20054;-45
2024/02/09 10:24:55;;;;;;;11.77;6.38;;;;;;;12.10;79.83;98607.69;5102347;28;20426;-45
2024/02/09 10:27:24;;;;;;;12.63;6.28;;;;;;;12.21;78.96;98603.03;5102406;27;20048;-45
2024/02/09 10:29:52;;;;;;;13.85;6.50;;;;;;;12.20;78.86;98595.16;5088793;28;20131;-45
2024/02/09 10:32:20;;;;;;;12.98;6.60;;;;;;;12.28;78.16;98596.13;5098904;28;20116;-43
2024/02/09 10:34:51;;;;;;;12.68;6.57;;;;;;;12.33;77.99;98585.00;5089885;28;20048;-45
2024/02/09 10:37:20;;;;;;;13.27;6.45;;;;;;;12.32;79.03;98577.97;5089949;28;20090;-45
2024/02/09 10:40:00;;;;;;;13.70;6.20;;;;;;;12.38;78.66;98574.72;5096253;28;20051;-45
2024/02/09 10:42:30;;;;;;;14.48;7.30;;;;;;;12.45;78.62;98565.16;5110425;28;20484;-46
2024/02/09 10:44:59;;;;;;;16.98;7.05;;;;;;;12.51;77.92;98566.38;5110555;28;20094;-45
2024/02/09 10:47:41;;;;;;;15.25;7.32;;;;;;;12.54;78.46;98571.44;5110562;27;20085;-45
2024/02/09 10:50:12;;;;;;;13.02;7.07;;;;;;;12.77;77.50;98562.06;5100028;28;20055;-45
2024/02/09 10:52:44;;;;;;;13.30;6.80;;;;;;;12.83;76.88;98547.25;5090060;28;20433;-46
2024/02/09 10:55:17;;;;;;;13.50;7.40;;;;;;;12.88;76.82;98545.81;5089939;28;20501;-46
2024/02/09 10:57:46;;;;;;;17.08;6.97;;;;;;;13.02;75.73;98549.81;5089664;28;20048;-46
2024/02/09 11:00:16;;;;;;;19.35;7.07;;;;;;;13.03;76.21;98540.84;5091748;28;20493;-46
2024/02/09 11:02:45;;;;;;;17.17;7.38;;;;;;;13.03;76.76;98540.84;5089525;28;20056;-44
2024/02/09 11:05:15;;;;;;;15.85;6.80;;;;;;;13.22;75.87;98539.03;5100970;28;20048;-46
2024/02/09 11:07:49;;;;;;;16.33;6.65;;;;;;;13.45;74.50;98533.13;5095559;28;20185;-47
2024/02/09 11:10:19;;;;;;;10.85;5.78;;;;;;;13.53;73.94;98540.41;5099459;28;20059;-46
2024/02/09 11:12:57;;;;;;;21.38;6.53;;;;;;;13.65;73.92;98531.13;5096435;28;20052;-45
2024/02/09 11:15:25;;;;;;;11.75;5.65;;;;;;;13.78;73.50;98541.44;5099081;28;20155;-46
2024/02/09 11:17:54;;;;;;;9.30;5.53;;;;;;;13.85;73.01;98537.16;5110473;28;20119;-45
2024/02/09 11:20:22;;;;;;;11.75;5.45;;;;;;;13.95;72.76;98531.72;5093132;28;20127;-46
2024/02/09 11:22:50;;;;;;;14.40;5.45;;;;;;;13.91;73.17;98530.34;5089647;28;20123;-48
2024/02/09 11:25:20;;;;;;;10.27;5.20;;;;;;;13.93;72.91;98523.00;5104056;28;20056;-45
2024/02/09 11:27:50;;;;;;;15.70;6.10;;;;;;;14.08;72.35;98531.31;5100713;28;20250;-46
2024/02/09 11:30:21;;;;;;;10.57;5.22;;;;;;;14.18;71.58;98518.63;5090925;28;20056;-48
2024/02/09 11:32:50;;;;;;;13.63;5.50;;;;;;;14.27;71.25;98523.91;5098081;28;20131;-48
2024/02/09 11:35:19;;;;;;;11.18;4.90;;;;;;;14.36;70.92;98521.28;5105814;28;20058;-44
2024/02/09 11:37:47;;;;;;;10.82;4.30;;;;;;;14.36;70.57;98521.28;5094955;28;20472;-45
2024/02/09 11:40:17;;;;;;;11.65;3.92;;;;;;;14.40;70.29;98517.28;5103847;28;20082;-49
2024/02/09 11:42:47;;;;;;;9.90;4.05;;;;;;;14.31;70.37;98521.75;5102646;28;20043;-46
2024/02/09 11:45:15;;;;;;;11.55;4.60;;;;;;;14.41;70.08;98516.28;5094423;28;20056;-46
2024/02/09 11:47:44;;;;;;;10.85;4.32;;;;;;;14.55;69.11;98513.03;5098348;28;20058;-45
2024/02/09 11:50:21;;;;;;;13.23;4.03;;;;;;;14.59;69.30;98503.69;5089103;28;20059;-45
2024/02/09 11:52:49;;;;;;;10.88;4.25;;;;;;;14.56;69.20;98509.34;5090450;28;20051;-48
2024/02/09 11:55:42;;;;;;;11.32;3.92;;;;;;;14.59;69.16;98509.06;5100900;28;20122;-44
2024/02/09 11:58:13;;;;;;;10.85;4.20;;;;;;;14.55;68.99;98508.50;5107358;28;20127;-49
2024/02/09 12:00:43;;;;;;;9.27;4.20;;;;;;;14.49;69.18;98511.00;5089275;28;20131;-45
2024/02/09 12:03:13;;;;;;;8.55;4.00;;;;;;;14.65;68.72;98494.97;5098021;28;20090;-48
2024/02/09 12:05:47;;;;;;;9.05;4.13;;;;;;;14.58;68.73;98493.97;5089478;28;20056;-44
2024/02/09 12:08:18;;;;;;;9.07;4.00;;;;;;;14.56;68.57;98496.78;5098369;28;20121;-45
2024/02/09 12:10:47;;;;;;;9.88;4.10;;;;;;;14.47;68.99;98488.84;5103443;28;20047;-48
2024/02/09 12:13:18;;;;;;;9.40;3.80;;;;;;;14.54;68.62;98489.91;5104776;28;20547;-46
2024/02/09 12:15:47;;;;;;;8.93;4.43;;;;;;;14.48;68.59;98490.56;5094359;28;20146;-45
2024/02/09 12:18:16;;;;;;;9.30;3.67;;;;;;;14.56;68.10;98493.25;5101988;28;20109;-46
2024/02/09 12:20:45;;;;;;;10.85;4.20;;;;;;;14.50;68.95;98492.06;5108783;28;20052;-48
2024/02/09 12:23:16;;;;;;;9.32;4.50;;;;;;;14.57;68.52;98477.03;5101875;28;20121;-47
2024/02/09 12:25:45;;;;;;;9.57;3.97;;;;;;;14.52;68.72;98494.59;5093042;28;20055;-45
2024/02/09 12:28:23;;;;;;;7.18;3.30;;;;;;;14.47;68.71;98494.22;5101784;28;20082;-47
2024/02/09 12:30:52;;;;;;;13.93;3.97;;;;;;;14.57;68.09;98494.94;5100977;28;20119;-46
2024/02/09 12:33:21;;;;;;;11.13;3.70;;;;;;;14.40;68.90;98493.16;5101809;28;20047;-47
2024/02/09 12:35:54;;;;;;;6.60;3.63;;;;;;;14.54;68.50;98489.91;5113273;28;20040;-51
2024/02/09 12:38:23;;;;;;;11.98;3.72;;;;;;;14.61;68.18;98488.25;5104188;27;20050;-45
2024/02/09 12:40:56;;;;;;;11.02;4.22;;;;;;;14.68;68.10;98475.06;5097577;28;20428;-46
2024/02/09 12:43:30;;;;;;;8.35;4.32;;;;;;;14.70;67.65;98476.56;5103842;28;20081;-46
2024/02/09 12:46:00;;;;;;;8.43;3.67;;;;;;;14.80;67.47;98465.69;5104003;28;20044;-46
2024/02/09 12:48:29;;;;;;;10.00;3.65;;;;;;;14.82;67.07;98471.75;5104207;28;20101;-46
2024/02/09 12:50:58;;;;;;;7.70;3.83;;;;;;;14.83;66.81;98460.84;5102666;28;20051;-45
2024/02/09 12:53:26;;;;;;;9.38;3.92;;;;;;;14.88;66.89;98477.31;5103626;28;20458;-46
2024/02/09 12:55:57;;;;;;;8.25;3.67;;;;;;;14.91;66.57;98457.34;5103380;28;20054;-47
2024/02/09 12:58:27;;;;;;;12.73;4.22;;;;;;;14.96;66.27;98449.66;5101743;28;20043;-48
2024/02/09 13:00:56;;;;;;;9.30;3.88;;;;;;;14.93;66.55;98449.97;5097722;28;20044;-48
2024/02/09 13:03:29;;;;;;;8.85;4.00;;;;;;;14.92;66.45;98447.44;5103157;28;20047;-47
2024/02/09 13:05:57;;;;;;;9.25;3.70;;;;;;;14.98;66.44;98444.13;5104136;28;20054;-47
2024/02/09 13:08:29;;;;;;;12.13;3.78;;;;;;;14.94;66.54;98437.38;5096610;28;20048;-45
2024/02/09 13:10:57;;;;;;;11.60;3.95;;;;;;;14.92;66.31;98450.13;5108401;28;20092;-47
2024/02/09 13:13:27;;;;;;;8.32;3.70;;;;;;;15.13;65.63;98447.81;5092084;28;20097;-46
2024/02/09 13:15:56;;;;;;;10.93;4.00;;;;;;;15.14;65.15;98439.59;5100535;28;20055;-46
2024/02/09 13:18:24;;;;;;;8.68;3.72;;;;;;;15.17;65.26;98441.13;5104303;28;20040;-45
2024/02/09 13:20:53;;;;;;;13.07;3.30;;;;;;;15.14;65.06;98434.22;5103075;28;20043;-48
2024/02/09 13:23:23;;;;;;;8.75;3.50;;;;;;;15.08;65.18;98423.34;5103602;28;20443;-45
2024/02/09 13:25:57;;;;;;;8.40;3.97;;;;;;;15.10;64.55;98432.06;5113217;28;20108;-47